Time;durP1;ratioP1;P1;durP2;ratioP2;P2;SDS_P1;SDS_P2;PMS_P1;PMS_P2;Temp;Humidity;BMP_temperature;BMP_pressure;BME280_temperature;BME280_humidity;BME280_pressure;Samples;Min_cycle;Max_cycle;Signal;HPM_P1;HPM_P2
2020/12/11 00:00:46;;;;;;;;;;;;;;;-8.11;82.32;102176.20;1802163;79;20385;-38
2020/12/11 00:03:15;;;;;;;;;;;;;;;-8.13;82.43;102177.73;1827249;78;20164;-36
2020/12/11 00:05:42;;;;;;;;;;;;;;;-8.14;82.47;102178.91;1858523;77;20162;-38
2020/12/11 00:08:11;;;;;;;;;;;;;;;-8.17;82.55;102170.62;1818903;78;20352;-38
2020/12/11 00:10:40;;;;;;;;;;;;;;;-8.18;82.58;102166.30;1801137;80;20199;-37
2020/12/11 00:13:08;;;;;;;;;;;;;;;-8.19;82.65;102166.16;1801387;80;20149;-37
2020/12/11 00:15:36;;;;;;;;;;;;;;;-8.21;82.76;102162.63;1801344;80;20200;-37
2020/12/11 00:18:03;;;;;;;;;;;;;;;-8.22;82.85;102164.66;1801263;80;20173;-38
2020/12/11 00:20:31;;;;;;;;;;;;;;;-8.23;82.95;102176.48;1801198;80;20217;-38
2020/12/11 00:23:03;;;;;;;;;;;;;;;-8.22;83.04;102168.09;1800740;80;20219;-37
2020/12/11 00:25:31;;;;;;;;;;;;;;;-8.24;83.10;102170.00;1828733;78;20402;-37
2020/12/11 00:27:59;;;;;;;;;;;;;;;-8.26;83.16;102170.24;1827894;78;20186;-38
2020/12/11 00:30:26;;;;;;;;;;;;;;;-8.28;83.24;102162.89;1801228;80;20224;-38
2020/12/11 00:32:54;;;;;;;;;;;;;;;-8.30;83.31;102158.95;1801186;80;20181;-38
2020/12/11 00:35:22;;;;;;;;;;;;;;;-8.31;83.40;102161.39;1801362;80;20145;-38
2020/12/11 00:37:50;;;;;;;;;;;;;;;-8.32;83.46;102159.61;1801116;80;20137;-37
2020/12/11 00:40:17;;;;;;;;;;;;;;;-8.33;83.55;102159.09;1801079;79;20215;-38
2020/12/11 00:42:45;;;;;;;;;;;;;;;-8.34;83.62;102157.34;1801438;80;20186;-37
2020/12/11 00:45:13;;;;;;;;;;;;;;;-8.35;83.67;102157.72;1801088;80;20154;-37
2020/12/11 00:47:40;;;;;;;;;;;;;;;-8.37;83.72;102147.80;1801331;80;20198;-38
2020/12/11 00:50:08;;;;;;;;;;;;;;;-8.37;83.81;102144.36;1801186;80;20171;-36
2020/12/11 00:52:36;;;;;;;;;;;;;;;-8.39;83.89;102134.44;1801357;78;20206;-37
2020/12/11 00:55:04;;;;;;;;;;;;;;;-8.40;83.96;102140.31;1830389;78;20434;-36
2020/12/11 00:57:33;;;;;;;;;;;;;;;-8.41;84.04;102133.45;1833761;78;20192;-37
2020/12/11 01:00:00;;;;;;;;;;;;;;;-8.43;84.10;102129.88;1833788;78;20164;-37
2020/12/11 01:02:28;;;;;;;;;;;;;;;-8.46;84.17;102121.23;1833966;78;20149;-40
2020/12/11 01:04:56;;;;;;;;;;;;;;;-8.46;84.22;102125.42;1833906;78;20399;-37
2020/12/11 01:07:23;;;;;;;;;;;;;;;-8.47;84.26;102121.98;1833805;78;20235;-37
2020/12/11 01:09:52;;;;;;;;;;;;;;;-8.49;84.27;102124.81;1803529;78;20139;-37
2020/12/11 01:12:20;;;;;;;;;;;;;;;-8.51;84.30;102117.42;1801916;78;20471;-37
2020/12/11 01:14:48;;;;;;;;;;;;;;;-8.52;84.32;102119.84;1801147;80;20139;-40
2020/12/11 01:17:15;;;;;;;;;;;;;;;-8.54;84.37;102117.58;1802134;78;20291;-37
2020/12/11 01:19:43;;;;;;;;;;;;;;;-8.55;84.40;102118.33;1800979;78;20286;-38
2020/12/11 01:22:11;;;;;;;;;;;;;;;-8.57;84.43;102110.57;1801197;80;20127;-38
2020/12/11 01:24:39;;;;;;;;;;;;;;;-8.57;84.49;102119.84;1801083;78;20193;-37
2020/12/11 01:27:07;;;;;;;;;;;;;;;-8.60;84.53;102114.12;1801219;80;20231;-37
2020/12/11 01:29:35;;;;;;;;;;;;;;;-8.61;84.56;102123.81;1801346;80;20138;-37
2020/12/11 01:32:02;;;;;;;;;;;;;;;-8.63;84.60;102116.80;1801135;80;20139;-37
2020/12/11 01:34:30;;;;;;;;;;;;;;;-8.66;84.65;102112.34;1801204;80;20186;-38
2020/12/11 01:37:03;;;;;;;;;;;;;;;-8.68;84.65;102107.54;1800803;80;20180;-37
2020/12/11 01:39:31;;;;;;;;;;;;;;;-8.71;84.70;102103.46;1801305;79;20149;-38
2020/12/11 01:41:59;;;;;;;;;;;;;;;-8.74;84.78;102109.58;1801110;80;20148;-37
2020/12/11 01:44:26;;;;;;;;;;;;;;;-8.74;84.87;102109.96;1801318;79;20205;-54
2020/12/11 01:46:57;;;;;;;;;;;;;;;-8.75;84.96;102117.07;1806946;78;20191;-37
2020/12/11 01:49:24;;;;;;;;;;;;;;;-8.76;85.04;102114.02;1801295;80;20190;-40
2020/12/11 01:51:53;;;;;;;;;;;;;;;-8.74;85.15;102110.85;1809544;79;20246;-37
2020/12/11 01:54:21;;;;;;;;;;;;;;;-8.68;85.25;102121.91;1782768;78;20129;-38
2020/12/11 01:57:00;;;;;;;;;;;;;;;-8.63;85.27;102115.16;1832639;78;20145;-38
2020/12/11 01:59:41;;;;;;;;;;;;;;;-8.58;85.30;102113.88;1833710;78;20137;-37
2020/12/11 02:02:10;;;;;;;;;;;;;;;-8.50;85.30;102106.88;1833603;78;20125;-37
2020/12/11 02:04:38;;;;;;;;;;;;;;;-8.44;85.25;102102.29;1802800;78;20400;-37
2020/12/11 02:07:06;;;;;;;;;;;;;;;-8.38;85.19;102101.89;1800722;79;20479;-38
2020/12/11 02:09:34;;;;;;;;;;;;;;;-8.33;85.10;102096.41;1801144;80;20159;-37
2020/12/11 02:12:02;;;;;;;;;;;;;;;-8.28;85.03;102091.68;1800891;80;20139;-38
2020/12/11 02:14:30;;;;;;;;;;;;;;;-8.23;84.94;102097.64;1801341;80;20194;-37
2020/12/11 02:17:00;;;;;;;;;;;;;;;-8.17;84.84;102097.23;1806248;78;20164;-39
2020/12/11 02:19:32;;;;;;;;;;;;;;;-8.12;84.72;102098.48;1833476;78;20192;-37
2020/12/11 02:22:01;;;;;;;;;;;;;;;-8.09;84.60;102097.47;1815299;78;20173;-37
2020/12/11 02:26:58;;;;;;;;;;;;;;;-7.99;84.34;102088.90;1909591;74;20228;-42
2020/12/11 02:29:25;;;;;;;;;;;;;;;-8.05;84.21;102085.49;1873241;75;20224;-37
2020/12/11 02:31:53;;;;;;;;;;;;;;;-8.05;84.07;102090.58;1896697;75;20274;-38
2020/12/11 02:34:22;;;;;;;;;;;;;;;-8.07;83.99;102086.63;1890794;75;20389;-38
2020/12/11 02:36:49;;;;;;;;;;;;;;;-8.09;83.90;102086.03;1887383;75;20120;-37
2020/12/11 02:39:17;;;;;;;;;;;;;;;-8.11;83.87;102085.00;1902974;75;20175;-39
2020/12/11 02:41:48;;;;;;;;;;;;;;;-8.13;83.84;102089.07;1896596;75;20235;-37
2020/12/11 02:44:15;;;;;;;;;;;;;;;-8.17;83.80;102072.69;1869566;75;20199;-38
2020/12/11 02:46:43;;;;;;;;;;;;;;;-8.21;83.83;102073.61;1867539;76;20123;-38
2020/12/11 02:49:11;;;;;;;;;;;;;;;-8.25;83.85;102083.01;1867937;77;20149;-38
2020/12/11 02:51:38;;;;;;;;;;;;;;;-8.31;83.90;102076.20;1869072;75;20380;-39
2020/12/11 02:54:06;;;;;;;;;;;;;;;-8.37;84.00;102070.63;1868244;75;20185;-39
2020/12/11 02:56:34;;;;;;;;;;;;;;;-8.41;84.10;102065.69;1868008;77;20166;-37
2020/12/11 02:59:02;;;;;;;;;;;;;;;-8.44;84.17;102069.62;1868284;77;20134;-48
2020/12/11 03:01:29;;;;;;;;;;;;;;;-8.50;84.23;102068.74;1868068;77;20130;-37
2020/12/11 03:03:58;;;;;;;;;;;;;;;-8.53;84.32;102066.83;1868062;77;20221;-38
2020/12/11 03:06:30;;;;;;;;;;;;;;;-8.58;84.46;102068.12;1867891;77;20395;-38
2020/12/11 03:09:00;;;;;;;;;;;;;;;-8.60;84.61;102070.05;1868029;77;20154;-37
2020/12/11 03:11:27;;;;;;;;;;;;;;;-8.63;84.77;102059.23;1867841;77;20126;-37
2020/12/11 03:13:55;;;;;;;;;;;;;;;-8.64;84.90;102060.00;1868262;77;20158;-37
2020/12/11 03:16:23;;;;;;;;;;;;;;;-8.63;85.11;102057.97;1868077;77;20174;-38
2020/12/11 03:18:51;;;;;;;;;;;;;;;-8.64;85.23;102057.45;1868059;77;20170;-38
2020/12/11 03:21:19;;;;;;;;;;;;;;;-8.64;85.42;102059.10;1868063;77;20245;-38
2020/12/11 03:23:47;;;;;;;;;;;;;;;-8.63;85.62;102048.17;1867929;77;20158;-38
2020/12/11 03:26:16;;;;;;;;;;;;;;;-8.64;85.72;102043.47;1867723;75;20190;-37
2020/12/11 03:28:43;;;;;;;;;;;;;;;-8.63;85.85;102046.53;1868068;77;20158;-37
2020/12/11 03:31:11;;;;;;;;;;;;;;;-8.64;86.00;102040.94;1868000;77;20412;-37
2020/12/11 03:33:38;;;;;;;;;;;;;;;-8.64;86.07;102043.47;1868037;77;20395;-38
2020/12/11 03:36:07;;;;;;;;;;;;;;;-8.66;86.16;102043.72;1867919;77;20196;-36
2020/12/11 03:38:35;;;;;;;;;;;;;;;-8.65;86.27;102048.05;1867382;77;20271;-38
2020/12/11 03:41:02;;;;;;;;;;;;;;;-8.68;86.31;102040.57;1867335;76;20133;-39
2020/12/11 03:43:32;;;;;;;;;;;;;;;-8.70;86.41;102044.25;1867119;76;20132;-37
2020/12/11 03:45:59;;;;;;;;;;;;;;;-8.71;86.52;102039.03;1867307;77;20140;-37
2020/12/11 03:48:27;;;;;;;;;;;;;;;-8.71;86.61;102033.57;1867517;76;20410;-38
2020/12/11 03:50:55;;;;;;;;;;;;;;;-8.74;86.68;102034.61;1867231;76;20200;-38
2020/12/11 03:53:22;;;;;;;;;;;;;;;-8.72;86.80;102038.52;1867443;77;20262;-38
2020/12/11 03:55:51;;;;;;;;;;;;;;;-8.73;86.90;102035.12;1867509;77;20493;-37
2020/12/11 03:58:19;;;;;;;;;;;;;;;-8.73;86.99;102036.78;1867394;77;20130;-38
2020/12/11 04:00:46;;;;;;;;;;;;;;;-8.72;87.10;102034.33;1889536;75;20125;-37
2020/12/11 04:03:14;;;;;;;;;;;;;;;-8.70;87.21;102041.70;1881877;75;20229;-38
2020/12/11 04:05:42;;;;;;;;;;;;;;;-8.70;87.24;102033.19;1867129;77;20135;-37
2020/12/11 04:08:10;;;;;;;;;;;;;;;-8.72;87.30;102032.17;1867474;77;20182;-37
2020/12/11 04:10:38;;;;;;;;;;;;;;;-8.73;87.35;102027.50;1867266;76;20153;-43
2020/12/11 04:13:05;;;;;;;;;;;;;;;-8.72;87.42;102029.63;1867225;77;20185;-38
2020/12/11 04:15:33;;;;;;;;;;;;;;;-8.73;87.45;102021.53;1867514;77;20400;-37
2020/12/11 04:18:01;;;;;;;;;;;;;;;-8.73;87.49;102018.98;1867638;77;20150;-38
2020/12/11 04:20:28;;;;;;;;;;;;;;;-8.75;87.52;102012.50;1867119;77;20138;-38
2020/12/11 04:22:56;;;;;;;;;;;;;;;-8.76;87.56;102020.88;1867515;77;20396;-38
2020/12/11 04:25:23;;;;;;;;;;;;;;;-8.77;87.57;102024.56;1867211;77;20237;-39
2020/12/11 04:27:52;;;;;;;;;;;;;;;-8.78;87.61;102022.78;1867458;77;20135;-47
2020/12/11 04:30:19;;;;;;;;;;;;;;;-8.79;87.65;102029.92;1867373;77;20229;-38
2020/12/11 04:32:47;;;;;;;;;;;;;;;-8.80;87.68;102026.49;1867293;77;20114;-37
2020/12/11 04:35:15;;;;;;;;;;;;;;;-8.82;87.66;102027.12;1867435;77;20276;-38
2020/12/11 04:37:43;;;;;;;;;;;;;;;-8.85;87.67;102026.47;1867327;77;20471;-42
2020/12/11 04:40:10;;;;;;;;;;;;;;;-8.87;87.69;102021.67;1867178;77;20181;-39
2020/12/11 04:42:39;;;;;;;;;;;;;;;-8.87;87.73;102012.78;1867465;77;20226;-38
2020/12/11 04:45:07;;;;;;;;;;;;;;;-8.87;87.78;102016.59;1834495;77;20134;-37
2020/12/11 04:47:34;;;;;;;;;;;;;;;-8.89;87.81;102033.35;1867248;75;20138;-38
2020/12/11 04:50:02;;;;;;;;;;;;;;;-8.90;87.86;102035.00;1874120;75;20131;-39
2020/12/11 04:52:30;;;;;;;;;;;;;;;-8.89;87.86;102030.81;1901166;75;20207;-37
2020/12/11 04:54:59;;;;;;;;;;;;;;;-8.91;87.90;102028.14;1902205;75;20148;-38
2020/12/11 04:57:26;;;;;;;;;;;;;;;-8.90;87.92;102035.00;1902243;75;20473;-40
2020/12/11 04:59:54;;;;;;;;;;;;;;;-8.91;87.93;102031.95;1868239;75;20187;-38
2020/12/11 05:02:21;;;;;;;;;;;;;;;-8.92;87.98;102036.52;1902041;75;20136;-39
2020/12/11 05:04:52;;;;;;;;;;;;;;;-8.91;88.07;102033.59;1850496;75;20124;-39
2020/12/11 05:07:21;;;;;;;;;;;;;;;-8.89;88.16;102035.52;1893183;75;20241;-38
2020/12/11 05:09:56;;;;;;;;;;;;;;;-8.88;88.20;102034.76;1867785;75;20134;-37
2020/12/11 05:12:24;;;;;;;;;;;;;;;-8.88;88.23;102033.86;1897840;75;20136;-39
2020/12/11 05:14:59;;;;;;;;;;;;;;;-8.89;88.28;102040.59;1885374;75;20122;-39
2020/12/11 05:17:31;;;;;;;;;;;;;;;-8.88;88.34;102046.56;1867208;75;20397;-38
2020/12/11 05:20:01;;;;;;;;;;;;;;;-8.86;88.41;102043.37;1867388;77;20463;-41
2020/12/11 05:22:32;;;;;;;;;;;;;;;-8.87;88.41;102041.62;1866786;77;20138;-39
2020/12/11 05:25:02;;;;;;;;;;;;;;;-8.84;88.49;102046.42;1873855;75;20215;-38
2020/12/11 05:27:44;;;;;;;;;;;;;;;-8.85;88.55;102045.53;1881835;75;20129;-37
2020/12/11 05:30:18;;;;;;;;;;;;;;;-8.82;88.63;102048.72;1872339;75;20177;-41
2020/12/11 05:32:54;;;;;;;;;;;;;;;-8.79;88.69;102049.84;1866769;75;20199;-39
2020/12/11 05:35:25;;;;;;;;;;;;;;;-8.75;88.84;102044.27;1870968;75;20154;-41
2020/12/11 05:38:03;;;;;;;;;;;;;;;-8.68;88.90;102046.92;1873595;75;20221;-38
2020/12/11 05:40:35;;;;;;;;;;;;;;;-8.63;88.90;102049.06;1871670;75;20144;-39
2020/12/11 05:43:17;;;;;;;;;;;;;;;-8.59;88.94;102042.56;1867988;75;20137;-39
2020/12/11 05:45:52;;;;;;;;;;;;;;;-8.54;89.01;102041.31;1869036;75;20194;-39
2020/12/11 05:48:24;;;;;;;;;;;;;;;-8.50;89.07;102040.40;1868880;75;20447;-39
2020/12/11 05:50:52;;;;;;;;;;;;;;;-8.46;89.07;102038.59;1871650;75;20164;-40
2020/12/11 05:53:20;;;;;;;;;;;;;;;-8.40;89.10;102037.34;1867310;75;20431;-40
2020/12/11 05:55:49;;;;;;;;;;;;;;;-8.36;89.15;102034.27;1831318;75;20191;-40
2020/12/11 05:58:17;;;;;;;;;;;;;;;-8.31;89.18;102042.75;1817563;77;20117;-40
2020/12/11 06:00:46;;;;;;;;;;;;;;;-8.27;89.17;102047.69;1871950;75;20221;-41
2020/12/11 06:03:24;;;;;;;;;;;;;;;-8.23;89.16;102049.31;1781575;75;20308;-39
2020/12/11 06:06:05;;;;;;;;;;;;;;;-8.18;89.20;102048.40;1765287;77;20490;-40
2020/12/11 06:08:51;;;;;;;;;;;;;;;-8.12;89.19;102043.41;1813553;75;20536;-40
2020/12/11 06:11:23;;;;;;;;;;;;;;;-8.03;89.25;102044.91;1838568;77;20454;-38
2020/12/11 06:13:56;;;;;;;;;;;;;;;-7.96;89.28;102044.25;1871633;75;20231;-39
2020/12/11 06:16:24;;;;;;;;;;;;;;;-7.89;89.25;102036.33;1866466;75;20501;-40
2020/12/11 06:18:56;;;;;;;;;;;;;;;-7.83;89.24;102029.17;1857545;75;20361;-40
2020/12/11 06:21:25;;;;;;;;;;;;;;;-7.77;89.18;102036.39;1838971;75;20298;-40
2020/12/11 06:26:56;;;;;;;;;;;;;;;-7.60;89.16;102032.20;1894617;74;20288;-40
2020/12/11 06:29:39;;;;;;;;;;;;;;;-7.58;89.11;102026.85;1853138;75;20258;-40
2020/12/11 06:32:07;;;;;;;;;;;;;;;-7.51;89.07;102019.30;1870628;75;20201;-39
2020/12/11 06:34:36;;;;;;;;;;;;;;;-7.46;88.99;102022.69;1880196;75;20184;-40
2020/12/11 06:37:04;;;;;;;;;;;;;;;-7.39;88.95;102018.95;1833696;77;20153;-41
2020/12/11 06:39:48;;;;;;;;;;;;;;;-7.33;88.92;102013.05;1776103;79;20147;-40
2020/12/11 06:42:39;;;;;;;;;;;;;;;-7.26;88.91;102017.45;1812951;78;20158;-40
2020/12/11 06:45:17;;;;;;;;;;;;;;;-7.18;88.84;102015.87;1817156;78;20265;-43
2020/12/11 06:47:53;;;;;;;;;;;;;;;-7.10;88.81;102014.41;1810078;78;20131;-41
2020/12/11 06:50:27;;;;;;;;;;;;;;;-7.01;88.77;102018.00;1813478;78;20466;-41
2020/12/11 06:53:40;;;;;;;;;;;;;;;-6.87;88.65;102009.72;1862180;76;20143;-40
2020/12/11 06:56:08;;;;;;;;;;;;;;;-6.87;88.55;102004.23;1831153;77;20131;-38
2020/12/11 06:58:35;;;;;;;;;;;;;;;-6.77;88.46;102004.92;1839194;77;20175;-42
2020/12/11 07:01:03;;;;;;;;;;;;;;;-6.69;88.33;102012.34;1833128;77;20127;-47
2020/12/11 07:03:31;;;;;;;;;;;;;;;-6.63;88.23;102005.55;1867570;76;20297;-46
2020/12/11 07:06:00;;;;;;;;;;;;;;;-6.51;88.14;101991.13;1865306;76;20344;-42
2020/12/11 07:08:27;;;;;;;;;;;;;;;-6.39;87.97;101990.73;1864717;76;20162;-40
2020/12/11 07:11:03;;;;;;;;;;;;;;;-6.29;87.74;101998.25;1867486;76;20202;-44
2020/12/11 07:13:36;;;;;;;;;;;;;;;-6.16;87.61;101988.52;1863478;76;20132;-44
2020/12/11 07:16:06;;;;;;;;;;;;;;;-5.98;87.39;101983.84;1838890;76;20227;-44
2020/12/11 07:18:34;;;;;;;;;;;;;;;-5.84;87.10;101981.41;1866922;76;20229;-42
2020/12/11 07:21:02;;;;;;;;;;;;;;;-5.68;86.80;101985.92;1867282;76;20186;-40
2020/12/11 07:23:30;;;;;;;;;;;;;;;-5.53;86.42;101968.20;1869666;76;20411;-42
2020/12/11 07:25:58;;;;;;;;;;;;;;;-5.43;86.03;101978.25;1850166;76;20524;-44
2020/12/11 07:28:26;;;;;;;;;;;;;;;-5.30;85.72;101971.91;1812395;78;20296;-43
2020/12/11 07:30:54;;;;;;;;;;;;;;;-5.16;85.35;101974.11;1870945;76;20180;-46
2020/12/11 07:33:22;;;;;;;;;;;;;;;-5.00;84.97;101979.47;1842003;77;20199;-46
2020/12/11 07:35:50;;;;;;;;;;;;;;;-4.80;84.56;101974.38;1816795;77;20155;-46
2020/12/11 07:38:24;;;;;;;;;;;;;;;-4.59;84.10;101969.34;1852792;77;20205;-41
2020/12/11 07:40:59;;;;;;;;;;;;;;;-4.34;83.63;101956.07;1804894;77;20194;-50
2020/12/11 07:43:27;;;;;;;;;;;;;;;-4.11;82.85;101948.14;1847412;77;20152;-44
2020/12/11 07:45:57;;;;;;;;;;;;;;;-3.96;81.99;101953.33;1849993;77;20144;-42
2020/12/11 07:48:26;;;;;;;;;;;;;;;-3.84;81.29;101954.08;1847983;77;20206;-43
2020/12/11 07:51:01;;;;;;;;;;;;;;;-3.73;80.75;101949.20;1845320;76;22103;-42
2020/12/11 07:53:29;;;;;;;;;;;;;;;-3.56;80.08;101964.72;1841203;77;20572;-41
2020/12/11 07:55:57;;;;;;;;;;;;;;;-3.51;79.40;101945.37;1865319;76;20201;-43
2020/12/11 07:58:25;;;;;;;;;;;;;;;-3.47;78.87;101950.75;1865324;76;20188;-42
2020/12/11 08:00:52;;;;;;;;;;;;;;;-3.38;78.58;101945.30;1839015;77;20141;-41
2020/12/11 08:03:20;;;;;;;;;;;;;;;-3.28;78.35;101943.36;1830902;77;20204;-45
2020/12/11 08:05:47;;;;;;;;;;;;;;;-3.08;78.11;101948.36;1831664;77;20412;-45
2020/12/11 08:08:15;;;;;;;;;;;;;;;-2.92;77.62;101951.43;1839490;77;20172;-42
2020/12/11 08:10:43;;;;;;;;;;;;;;;-2.75;77.29;101941.72;1841657;77;20227;-41
2020/12/11 08:13:12;;;;;;;;;;;;;;;-2.63;76.78;101948.85;1870010;76;20182;-42
2020/12/11 08:15:41;;;;;;;;;;;;;;;-2.49;76.40;101954.73;1865274;76;20162;-45
2020/12/11 08:18:20;;;;;;;;;;;;;;;-2.41;75.89;101950.91;1844766;77;20539;-44
2020/12/11 08:20:57;;;;;;;;;;;;;;;-2.38;75.46;101939.54;1835449;77;20133;-44
2020/12/11 08:23:37;;;;;;;;;;;;;;;-2.48;75.23;101944.55;1831368;77;20472;-42
2020/12/11 08:26:08;;;;;;;;;;;;;;;-2.53;75.37;101945.09;1833445;77;20180;-42
2020/12/11 08:28:35;;;;;;;;;;;;;;;-2.60;75.49;101927.58;1837235;77;20446;-44
2020/12/11 08:31:23;;;;;;;;;;;;;;;-2.71;75.76;101931.24;1835397;77;20299;-42
2020/12/11 08:34:11;;;;;;;;;;;;;;;-2.83;75.96;101919.50;1809209;77;20285;-46
2020/12/11 08:36:45;;;;;;;;;;;;;;;-2.96;76.32;101932.82;1835015;77;20200;-42
2020/12/11 08:39:18;;;;;;;;;;;;;;;-3.12;76.78;101939.13;1830520;77;20216;-44
2020/12/11 08:45:14;;;;;;;;;;;;;;;-3.36;77.97;101944.61;1861057;76;20181;-41
2020/12/11 08:47:43;;;;;;;;;;;;;;;-3.39;78.92;101947.38;1862498;76;20141;-42
2020/12/11 08:50:11;;;;;;;;;;;;;;;-3.37;79.78;101944.52;1860501;76;20289;-42
2020/12/11 08:52:34;;;;;;;;;;;;;;;-3.38;80.38;101938.50;1863359;76;20186;-40
2020/12/11 08:55:01;;;;;;;;;;;;;;;-3.44;80.66;101952.63;1867290;76;20129;-42
2020/12/11 08:57:32;;;;;;;;;;;;;;;-3.50;80.91;101950.98;1860170;76;20139;-41
2020/12/11 08:59:59;;;;;;;;;;;;;;;-3.55;81.14;101946.88;1864998;76;20201;-42
2020/12/11 09:02:27;;;;;;;;;;;;;;;-3.60;81.72;101950.81;1863203;76;20143;-41
2020/12/11 09:04:55;;;;;;;;;;;;;;;-3.68;81.92;101955.51;1863491;76;20194;-41
2020/12/11 09:07:28;;;;;;;;;;;;;;;-3.75;82.23;101954.64;1817885;77;20262;-44
2020/12/11 09:09:56;;;;;;;;;;;;;;;-3.78;82.60;101939.47;1842866;77;20122;-40
2020/12/11 09:12:24;;;;;;;;;;;;;;;-3.82;82.98;101950.33;1833858;77;20243;-42
2020/12/11 09:14:53;;;;;;;;;;;;;;;-3.85;83.33;101953.97;1840855;77;20284;-43
2020/12/11 09:17:22;;;;;;;;;;;;;;;-3.86;83.69;101958.20;1862949;76;20139;-42
2020/12/11 09:19:50;;;;;;;;;;;;;;;-3.84;84.01;101950.62;1865516;76;20261;-45
2020/12/11 09:22:19;;;;;;;;;;;;;;;-3.85;84.25;101947.56;1844826;77;20436;-40
2020/12/11 09:24:46;;;;;;;;;;;;;;;-3.86;84.44;101945.80;1841052;77;20157;-38
2020/12/11 09:27:16;;;;;;;;;;;;;;;-3.86;84.66;101947.08;1842302;77;20192;-40
2020/12/11 09:29:47;;;;;;;;;;;;;;;-3.87;84.87;101937.22;1842936;77;20294;-39
2020/12/11 09:32:28;;;;;;;;;;;;;;;-3.85;85.03;101942.05;1842413;77;20544;-38
2020/12/11 09:34:46;;;;;;;;;;;;;;;-3.85;85.27;101933.09;1837864;77;20130;-38
2020/12/11 09:37:15;;;;;;;;;;;;;;;-3.82;85.54;101928.16;1844454;76;20669;-39
2020/12/11 09:39:42;;;;;;;;;;;;;;;-3.78;85.66;101918.58;1848065;77;20172;-41
2020/12/11 09:47:46;;;;;;;;;;;;;;;-3.76;85.92;101905.47;1843011;76;20293;-42
2020/12/11 09:50:15;;;;;;;;;;;;;;;-3.74;86.12;101916.67;1851310;77;20224;-41
2020/12/11 09:55:15;;;;;;;;;;;;;;;-3.62;86.35;101911.42;1779950;78;20534;-41
2020/12/11 09:57:43;;;;;;;;;;;;;;;-3.61;86.37;101918.33;1843742;76;20478;-41
2020/12/11 10:00:11;;;;;;;;;;;;;;;-3.58;86.42;101919.77;1844132;77;20298;-43
2020/12/11 10:02:59;;;;;;;;;;;;;;;-3.56;86.46;101905.77;1847548;76;20156;-46
2020/12/11 10:05:23;;;;;;;;;;;;;;;-3.55;86.46;101894.73;1841224;77;20300;-39
2020/12/11 10:07:51;;;;;;;;;;;;;;;-3.55;86.47;101903.70;1841291;77;20539;-42
2020/12/11 10:10:19;;;;;;;;;;;;;;;-3.53;86.55;101896.97;1842946;77;20193;-42
2020/12/11 10:12:46;;;;;;;;;;;;;;;-3.52;86.61;101889.77;1840505;76;20124;-42
2020/12/11 10:15:20;;;;;;;;;;;;;;;-3.46;86.71;101890.13;1841094;76;20198;-44
2020/12/11 10:17:48;;;;;;;;;;;;;;;-3.41;86.71;101877.17;1841135;77;20225;-40
2020/12/11 10:20:24;;;;;;;;;;;;;;;-3.39;86.67;101874.31;1841231;77;20163;-43
2020/12/11 10:22:57;;;;;;;;;;;;;;;-3.40;86.64;101883.67;1849933;77;20174;-40
2020/12/11 10:26:49;;;;;;;;;;;;;;;-3.39;86.71;101856.37;1892787;74;20226;-38
2020/12/11 10:29:18;;;;;;;;;;;;;;;-3.45;86.78;101863.31;1864363;75;20123;-39
2020/12/11 10:31:48;;;;;;;;;;;;;;;-3.43;86.87;101871.98;1867551;75;20445;-45
2020/12/11 10:34:19;;;;;;;;;;;;;;;-3.43;86.91;101862.12;1842912;75;20189;-40
2020/12/11 10:37:00;;;;;;;;;;;;;;;-3.44;87.04;101857.39;1829704;75;20188;-40
2020/12/11 10:39:31;;;;;;;;;;;;;;;-3.43;87.11;101859.56;1848610;75;20272;-40
2020/12/11 10:42:07;;;;;;;;;;;;;;;-3.40;87.18;101847.79;1818331;75;20202;-40
2020/12/11 10:44:37;;;;;;;;;;;;;;;-3.37;87.29;101851.83;1841833;75;20187;-41
2020/12/11 10:47:07;;;;;;;;;;;;;;;-3.34;87.27;101838.28;1838154;75;20316;-39
2020/12/11 10:49:49;;;;;;;;;;;;;;;-3.32;87.31;101832.85;1809414;75;20197;-38
2020/12/11 10:52:19;;;;;;;;;;;;;;;-3.28;87.29;101829.66;1871575;75;20201;-40
2020/12/11 10:54:53;;;;;;;;;;;;;;;-3.28;87.31;101826.69;1819429;75;20252;-39
2020/12/11 10:57:46;;;;;;;;;;;;;;;-3.27;87.32;101818.20;1827623;75;20220;-39
2020/12/11 11:00:36;;;;;;;;;;;;;;;-3.23;87.40;101818.00;1856794;75;20313;-38
2020/12/11 11:03:07;;;;;;;;;;;;;;;-3.20;87.49;101815.59;1852630;75;20206;-42
2020/12/11 11:05:37;;;;;;;;;;;;;;;-3.16;87.55;101813.70;1869421;75;20561;-42
2020/12/11 11:08:05;;;;;;;;;;;;;;;-3.10;87.59;101819.57;1868703;75;20177;-43
2020/12/11 11:10:42;;;;;;;;;;;;;;;-3.05;87.61;101816.86;1836215;75;20205;-43
2020/12/11 11:13:28;;;;;;;;;;;;;;;-3.01;87.59;101799.55;1870763;75;20288;-42
2020/12/11 11:15:52;;;;;;;;;;;;;;;-2.99;87.54;101808.22;1872113;75;20193;-43
2020/12/11 11:18:41;;;;;;;;;;;;;;;-2.96;87.52;101812.25;1874847;75;20210;-38
2020/12/11 11:23:49;;;;;;;;;;;;;;;-2.87;87.52;101793.09;1869035;75;20123;-42
2020/12/11 11:28:46;;;;;;;;;;;;;;;-2.78;87.41;101792.73;1845550;75;20371;-39
2020/12/11 11:31:14;;;;;;;;;;;;;;;-2.73;87.38;101783.59;1868619;75;20200;-38
2020/12/11 11:33:42;;;;;;;;;;;;;;;-2.68;87.35;101801.79;1869824;75;20189;-40
2020/12/11 11:36:11;;;;;;;;;;;;;;;-2.63;87.32;101784.98;1873114;75;20194;-40
2020/12/11 11:38:39;;;;;;;;;;;;;;;-2.57;87.29;101790.44;1869750;75;20311;-41
2020/12/11 11:41:07;;;;;;;;;;;;;;;-2.51;87.23;101777.92;1871008;75;20278;-40
2020/12/11 11:44:08;;;;;;;;;;;;;;;-2.48;87.15;101777.67;1841881;75;20327;-39
2020/12/11 11:46:20;;;;;;;;;;;;;;;-2.43;87.07;101783.07;1849643;77;20295;-43
2020/12/11 11:48:53;;;;;;;;;;;;;;;-2.38;86.96;101788.44;1848319;77;20237;-39
2020/12/11 11:51:42;;;;;;;;;;;;;;;-2.35;86.86;101779.20;1814520;75;20455;-39
2020/12/11 11:54:22;;;;;;;;;;;;;;;-2.30;86.80;101785.48;1853074;75;20537;-39
2020/12/11 11:56:57;;;;;;;;;;;;;;;-2.26;86.70;101783.94;1868971;75;20269;-40
2020/12/11 11:59:25;;;;;;;;;;;;;;;-2.22;86.63;101771.73;1868013;75;20363;-41
2020/12/11 12:01:56;;;;;;;;;;;;;;;-2.17;86.53;101775.05;1877250;75;20201;-39
2020/12/11 12:04:24;;;;;;;;;;;;;;;-2.12;86.46;101759.45;1870221;75;20229;-40
2020/12/11 12:06:52;;;;;;;;;;;;;;;-2.06;86.34;101772.61;1869132;75;20288;-40
2020/12/11 12:09:20;;;;;;;;;;;;;;;-1.99;86.23;101768.67;1879158;75;20210;-40
2020/12/11 12:11:47;;;;;;;;;;;;;;;-1.93;86.06;101761.67;1866440;75;20186;-40
2020/12/11 12:14:16;;;;;;;;;;;;;;;-1.90;85.93;101756.27;1872480;75;20309;-40
2020/12/11 12:16:46;;;;;;;;;;;;;;;-1.85;85.78;101752.66;1869582;75;20178;-40
2020/12/11 12:19:18;;;;;;;;;;;;;;;-1.81;85.63;101752.88;1870410;75;20214;-40
2020/12/11 12:27:25;;;;;;;;;;;;;;;-1.67;85.20;101744.57;1870565;75;20189;-39
2020/12/11 12:29:48;;;;;;;;;;;;;;;-1.66;85.05;101736.94;1870366;75;20134;-39
2020/12/11 12:32:21;;;;;;;;;;;;;;;-1.62;84.95;101729.84;1874411;75;20155;-82
2020/12/11 12:34:55;;;;;;;;;;;;;;;-1.58;84.86;101727.03;1873705;75;20296;-39
2020/12/11 12:43:14;;;;;;;;;;;;;;;-1.52;84.62;101729.02;1872495;75;20455;-40
2020/12/11 12:45:36;;;;;;;;;;;;;;;-1.54;84.54;101709.66;1856696;75;20331;-42
2020/12/11 12:48:07;;;;;;;;;;;;;;;-1.54;84.43;101731.51;1868967;75;20142;-41
2020/12/11 12:50:37;;;;;;;;;;;;;;;-1.57;84.32;101733.03;1842527;75;20592;-43
2020/12/11 12:53:08;;;;;;;;;;;;;;;-1.63;84.26;101739.64;1853589;75;20473;-43
2020/12/11 12:56:32;;;;;;;;;;;;;;;-1.69;84.20;101730.75;1832142;75;20152;-43
2020/12/11 12:58:18;;;;;;;;;;;;;;;-1.77;84.19;101732.94;1843628;76;20174;-43
2020/12/11 13:03:59;;;;;;;;;;;;;;;-1.88;84.26;101736.67;1869501;75;20212;-41
2020/12/11 13:06:12;;;;;;;;;;;;;;;-1.91;84.34;101738.22;1864317;75;20203;-42
2020/12/11 13:08:40;;;;;;;;;;;;;;;-1.96;84.39;101747.36;1867499;75;20510;-42
2020/12/11 13:11:08;;;;;;;;;;;;;;;-2.04;84.46;101746.61;1868802;75;20217;-41
2020/12/11 13:13:36;;;;;;;;;;;;;;;-2.07;84.63;101743.87;1866683;75;20184;-44
2020/12/11 13:16:08;;;;;;;;;;;;;;;-2.09;84.69;101748.43;1874500;75;20201;-46
2020/12/11 13:18:53;;;;;;;;;;;;;;;-2.12;84.81;101739.30;1829114;75;20451;-42
2020/12/11 13:21:32;;;;;;;;;;;;;;;-2.15;84.92;101739.13;1849136;75;20205;-42
2020/12/11 13:26:53;;;;;;;;;;;;;;;-2.17;85.11;101734.34;1841610;76;20262;-43
2020/12/11 13:29:21;;;;;;;;;;;;;;;-2.19;85.12;101740.68;1852585;75;20806;-42
2020/12/11 13:31:53;;;;;;;;;;;;;;;-2.24;85.18;101736.11;1870685;75;20193;-41